KAFO/AFO METAR and TAF weather

Enter ICAO airport designator
Station Type Date Time Source
KAFO METAR 2022/01/23 11:15 UTC NOAA

KAFO 231115Z AUTO 00000KT 10SM CLR M21/M24 A3038 RMK AO2


Station Type Date Time Source
KAFO Decoded METAR 2022/01/23 11:15 UTC NOAA

Station name not available
Jan 23, 2022 - 06:15 AM EST / 2022.01.23 1115 UTC
Wind: Calm:0
Visibility: 10 mile(s):0
Sky conditions: clear
Temperature: -5 F (-21 C)
Dew Point: -11 F (-24 C)
Relative Humidity: 76%
Pressure (altimeter): 30.38 in. Hg (1028 hPa)
ob: KAFO 231115Z AUTO 00000KT 10SM CLR M21/M24 A3038 RMK AO2
cycle: 11

Station Type Date Time Source
KAFO TAF UTC NOAA

Error!

Example: see airport list